Terminal Aerodrome Forecast
Issued by NWS Atlanta, GA

Home | Current Version | Previous Version | Text Only | Print | Product List | Glossary On
Versions: 1 2 3 4 5 6 7 8 9 10 11 12 13 14 15 16 17 18 19 20 21 22 23 24 25 26 27 28 29 30 31 32 33 34 35 36
000
FTUS42 KFFC 222320
TAFATL
TAF
KATL 222320Z 2300/2406 10015G25KT 6SM SHRA BKN008 OVC012
     FM230300 10020G32KT 4SM +SHRA OVC008
     FM231300 10012G20KT 6SM SHRA OVC008
     FM231500 10011KT 6SM SHRA OVC007
     FM231700 11007KT P6SM VCSH OVC015 PROB30 2317/2321 4SM TSRA
      OVC025CB
     FM232100 15008KT P6SM VCSH OVC025
     FM240300 21003KT P6SM OVC040=

USA.gov is the U.S. government's official web portal to all federal, state and local government web resources and services.